RJCO(METAR)
10/16 19:00
METAR RJCO 161000Z 17004KT 9999 FEW030 SCT070 11/05 Q1020 RMK 1CU030
3AC070 A3012=
戻る
トップページへ戻る
IMOC Co,.Ltd.